Airfield :







YOU CAN JOIN US ON...

 
LOGIN :

Register | Disclaimer

   EN    FR    IT 

 









Legend :    VFR   Marginal VFR   IFR   Intensive IFR   Very Intensive IFR
Visi :
Ceiling :
>= 8 km
>= 3000ft
5 to 8 km
1000 to 3000 ft
1500m to 5 km
500 to 1000 ft
800 to 1500m
200 to 500 ft
< 800m
< 200 ft
Symbols :   Thunderstorms  Fog  Heavy snow  Heavy precipitations  Wind > 20 kt






- Airport Elevation : 90 ft
- IATA code : YHU


CYHU - Montréal Saint-Hubert

CURRENT METAR :
  • 260227Z AUTO 07012KT 7SM -SN FEW008 SCT018 OVC030 01/M00 A2983 RMK ICG INTMT PRESFR SLP105

EXPIRED METARs :
  • 260221Z AUTO 07011G18KT 3SM -SN FEW006 SCT018 OVC026 01/M00 A2984 RMK ICG INTMT SLP108
  • 260201Z AUTO 06013KT 6SM -RA BR BKN024 OVC036 01/00 A2986 RMK PRESFR SLP113
  • 260155Z AUTO 06013KT 8SM -RA -UP SCT024 OVC034 01/00 A2986 RMK ICG PAST HR PRESFR SLP115
  • 260148Z AUTO 06014KT 8SM -SN -UP SCT024 OVC030 01/00 A2986 RMK ICG PAST HR PRESFR SLP116
  • 260139Z AUTO 06013KT 6SM -SN OVC024 01/00 A2988 RMK ICG INTMT PRESFR SLP122
  • 260115Z AUTO 06009KT 3SM -SN BKN017 OVC025 01/M00 A2991 RMK ICG INTMT SLP133
  • 260108Z AUTO 06009KT 2SM -SN BKN015 OVC023 00/M00 A2992 RMK ICG SLP135
  • 260047Z AUTO 05008KT 2 1/4SM -SN BKN019 OVC033 01/M00 A2994 RMK ICG SLP141
  • 260041Z AUTO 06009KT 5SM -SN -UP BKN021 OVC033 01/M00 A2994 RMK SLP142
  • 260036Z AUTO 05010KT 9SM -UP SCT025 OVC033 01/M00 A2994 RMK SLP141
  • 260025Z AUTO 05010KT 9SM -RA -UP BKN035 OVC042 01/M00 A2994 RMK SLP141
  • 260016Z AUTO 05011KT 9SM -UP BKN035 OVC042 01/M00 A2993 RMK SLP139
  • 252350Z AUTO 04012KT 9SM -RA FEW040 OVC060 00/M00 A2993 RMK ICG PAST HR SLP139
  • 252340Z AUTO 04011KT 6SM -UP BR FEW036 BKN043 OVC060 00/M00 A2994 RMK ICG PAST HR PRESFR SLP140

TAF AMD TAF CYHU
Valid from the 26 at 01:00 until the 27 at 00:00 UTC


260152Z 2601/2624 06012KT 6SM -SN BR OVC030
TEMPO 2601/2603 11/2SM -RA BR BKN005 OVC010
FM260300 06010KT 3SM -RA BR SCT005 OVC010
TEMPO 2603/2606 11/2SM -SN BR OVC005
FM260600 04010KT 3/4SM -RASN BR OVC003
PROB30 2606/2611 3/8SM -RA FG VV001
FM261100 25008KT 3/4SM -RASN BR OVC003
PROB30 2611/2613 3/8SM -DZ FG VV001
FM261400 25010G20KT 3SM -RASN OVC005
FM262100 24010G20KT 2SM -SHSN OVC010
PROB40 2621/2624 1SM -SHSN VV010 RMK FCST BASED ON AUTO OBS. NXT FCST BY 260600Z



MET'MAP, your aeronautical weather chart ! - Copyright ORBIFLY December 2007 - Disclaimer

ORBIFLY MET'MAP TEAM :

Programming & Development : Alexandra Zaïnal
Concept & original design : Baudouin d'Aumeries
Assistance for programming : Marc-Olivier Méhu
Technical & hardware support : Manuel Goepfert

Contact : metmap@orbifly.com




SOURCES & CREDITS :

   NOAA